createdAt,value
2018-12-20T00:01:15.190Z,98.50
2018-12-20T00:03:43.545Z,98.30
2018-12-20T00:06:11.864Z,98.40
2018-12-20T00:08:40.105Z,98.50
2018-12-20T00:11:08.459Z,98.30
2018-12-20T00:13:36.766Z,98.50
2018-12-20T00:16:05.019Z,98.10
2018-12-20T00:18:33.444Z,98.40
2018-12-20T00:21:01.739Z,98.40
2018-12-20T00:23:29.905Z,98.90
2018-12-20T00:25:58.279Z,98.60
2018-12-20T00:28:26.468Z,98.90
2018-12-20T00:30:54.843Z,99.10
2018-12-20T00:33:23.133Z,98.90
2018-12-20T00:35:51.503Z,98.90
2018-12-20T00:38:19.857Z,99.00
2018-12-20T00:40:48.101Z,98.70
2018-12-20T00:43:16.447Z,99.10
2018-12-20T00:45:44.688Z,99.20
2018-12-20T00:48:12.841Z,99.40
2018-12-20T00:50:41.065Z,99.20
2018-12-20T00:53:09.286Z,98.70
2018-12-20T00:55:37.545Z,98.60
2018-12-20T00:58:05.938Z,99.30
2018-12-20T01:00:34.202Z,99.00
2018-12-20T01:03:02.746Z,99.50
2018-12-20T01:05:30.983Z,99.20
2018-12-20T01:07:59.315Z,98.80
2018-12-20T01:10:27.609Z,98.80
2018-12-20T01:12:55.749Z,99.00
2018-12-20T01:15:23.930Z,98.80
2018-12-20T01:17:52.299Z,99.00
2018-12-20T01:20:20.756Z,99.30
2018-12-20T01:22:50.985Z,99.80
2018-12-20T01:25:19.213Z,98.80
2018-12-20T01:27:47.579Z,99.90
2018-12-20T01:30:16.089Z,99.50
2018-12-20T01:32:48.041Z,99.10
2018-12-20T01:35:16.363Z,99.10
2018-12-20T01:37:44.490Z,99.40
2018-12-20T01:40:12.849Z,99.80
2018-12-20T01:42:41.062Z,98.80
2018-12-20T01:45:09.407Z,99.20
2018-12-20T01:47:37.671Z,99.20
2018-12-20T01:50:06.727Z,99.10
2018-12-20T01:52:35.077Z,98.60
2018-12-20T01:55:03.454Z,99.00
2018-12-20T01:57:31.707Z,99.20
2018-12-20T01:59:59.886Z,99.60
2018-12-20T02:02:28.098Z,99.60
2018-12-20T02:04:56.264Z,99.70
2018-12-20T02:07:24.684Z,99.40
2018-12-20T02:09:53.003Z,99.40
2018-12-20T02:12:21.269Z,99.50
2018-12-20T02:14:49.453Z,99.40
2018-12-20T02:17:17.673Z,99.30
2018-12-20T02:19:46.005Z,99.80
2018-12-20T02:22:14.291Z,99.90
2018-12-20T02:24:42.564Z,99.40
2018-12-20T02:27:10.845Z,99.30
2018-12-20T02:29:39.743Z,99.80
2018-12-20T02:32:07.938Z,99.30
2018-12-20T02:34:36.385Z,99.40
2018-12-20T02:37:04.896Z,99.10
2018-12-20T02:39:33.404Z,98.70
2018-12-20T02:42:01.994Z,98.60
2018-12-20T02:44:30.692Z,99.00
2018-12-20T02:46:58.979Z,98.40
2018-12-20T02:49:27.107Z,99.30
2018-12-20T02:51:55.554Z,99.20
2018-12-20T02:54:23.879Z,99.20
2018-12-20T02:56:52.166Z,98.50
2018-12-20T02:59:20.369Z,99.20
2018-12-20T03:01:48.553Z,99.10
2018-12-20T03:04:16.756Z,98.90
2018-12-20T03:06:45.160Z,99.30
2018-12-20T03:09:13.393Z,99.40
2018-12-20T03:11:41.553Z,99.20
2018-12-20T03:14:09.989Z,99.30
2018-12-20T03:16:38.323Z,99.10
2018-12-20T03:19:06.680Z,98.80
2018-12-20T03:21:34.956Z,98.60
2018-12-20T03:24:03.235Z,98.70
2018-12-20T03:26:31.501Z,98.70
2018-12-20T03:28:59.876Z,98.20
2018-12-20T03:31:28.436Z,98.10
2018-12-20T03:33:56.711Z,99.00
2018-12-20T03:36:25.232Z,98.40
2018-12-20T03:38:53.572Z,98.90
2018-12-20T03:41:21.801Z,99.00
2018-12-20T03:43:50.123Z,98.20
2018-12-20T03:46:18.350Z,98.50
2018-12-20T03:48:46.581Z,99.00
2018-12-20T03:51:14.813Z,98.60
2018-12-20T03:53:43.092Z,99.00
2018-12-20T03:56:11.346Z,98.50
2018-12-20T03:58:39.534Z,98.70
2018-12-20T04:01:07.759Z,98.80
2018-12-20T04:03:35.947Z,98.60
2018-12-20T04:06:07.940Z,98.80
2018-12-20T04:08:36.104Z,99.00
2018-12-20T04:11:04.481Z,99.00
2018-12-20T04:13:32.999Z,97.80
2018-12-20T04:16:01.239Z,97.80
2018-12-20T04:18:29.474Z,98.00
2018-12-20T04:20:57.797Z,98.20
2018-12-20T04:23:26.075Z,98.40
2018-12-20T04:25:54.621Z,98.40
2018-12-20T04:28:23.122Z,98.50
2018-12-20T04:30:51.288Z,98.60
2018-12-20T04:33:19.962Z,98.60
2018-12-20T04:38:47.946Z,98.20
2018-12-20T04:41:16.247Z,98.30
2018-12-20T04:43:44.476Z,98.30
2018-12-20T04:46:12.707Z,98.20
2018-12-20T04:48:40.849Z,98.30
2018-12-20T04:51:09.355Z,97.80
2018-12-20T04:53:37.654Z,98.30
2018-12-20T04:56:06.035Z,98.40
2018-12-20T04:58:34.463Z,98.60
2018-12-20T05:01:03.081Z,98.30
2018-12-20T05:03:31.427Z,98.40
2018-12-20T05:06:02.607Z,98.40
2018-12-20T05:08:30.980Z,98.70
2018-12-20T05:11:06.405Z,98.90
2018-12-20T05:13:34.526Z,98.10
2018-12-20T05:16:02.909Z,98.00
2018-12-20T05:18:37.574Z,98.70
2018-12-20T05:21:05.776Z,98.70
2018-12-20T05:23:35.098Z,98.80
2018-12-20T05:26:03.399Z,98.50
2018-12-20T05:28:31.654Z,98.90
2018-12-20T05:30:59.879Z,98.90
2018-12-20T05:33:28.976Z,98.20
2018-12-20T05:35:57.402Z,98.60
2018-12-20T05:38:25.625Z,98.70
2018-12-20T05:40:53.781Z,98.80
2018-12-20T05:43:22.089Z,98.70
2018-12-20T05:45:50.438Z,98.50
2018-12-20T05:48:18.658Z,98.30
2018-12-20T05:50:46.855Z,98.60
2018-12-20T05:53:15.053Z,98.40
2018-12-20T05:55:43.334Z,98.80
2018-12-20T05:58:11.653Z,98.50
2018-12-20T06:00:39.924Z,98.80
2018-12-20T06:03:08.156Z,98.90
2018-12-20T06:05:36.489Z,99.00
2018-12-20T06:08:04.795Z,99.00
2018-12-20T06:10:32.941Z,99.00
2018-12-20T06:13:01.113Z,99.10
2018-12-20T06:15:29.377Z,98.90
2018-12-20T06:17:57.660Z,98.70
2018-12-20T06:20:26.221Z,98.60
2018-12-20T06:22:54.572Z,98.50
2018-12-20T06:25:22.791Z,98.00
2018-12-20T06:27:50.948Z,97.70
2018-12-20T06:30:19.228Z,98.10
2018-12-20T06:32:47.457Z,97.30
2018-12-20T06:35:15.585Z,98.70
2018-12-20T06:37:43.752Z,98.20
2018-12-20T06:40:11.886Z,98.00
2018-12-20T06:42:40.039Z,98.90
2018-12-20T06:45:08.267Z,99.10
2018-12-20T06:47:36.403Z,98.60
2018-12-20T06:50:05.141Z,99.10
2018-12-20T06:52:33.293Z,98.70
2018-12-20T06:55:01.427Z,99.20
2018-12-20T06:57:29.646Z,99.10
2018-12-20T06:59:57.817Z,99.30
2018-12-20T07:02:26.052Z,99.10
2018-12-20T07:04:54.194Z,99.20
2018-12-20T07:07:24.369Z,99.20
2018-12-20T07:09:52.526Z,99.60
2018-12-20T07:12:33.109Z,99.90
2018-12-20T07:15:01.235Z,99.90
2018-12-20T07:17:29.370Z,99.90
2018-12-20T07:19:57.589Z,99.90
2018-12-20T07:22:25.760Z,99.80
2018-12-20T07:24:55.129Z,99.50
2018-12-20T07:27:23.254Z,99.50
2018-12-20T07:29:51.394Z,99.50
2018-12-20T07:32:25.087Z,99.50
2018-12-20T07:34:49.678Z,99.80
2018-12-20T07:37:17.881Z,99.70
2018-12-20T07:39:46.022Z,99.60
2018-12-20T07:42:14.189Z,99.80
2018-12-20T07:44:42.317Z,99.80
2018-12-20T07:47:10.460Z,99.90
2018-12-20T07:49:38.692Z,99.50
2018-12-20T07:52:07.070Z,99.80
2018-12-20T07:54:35.215Z,99.90
2018-12-20T07:57:03.347Z,99.90
2018-12-20T07:59:31.482Z,99.60
2018-12-20T08:01:59.765Z,99.70
2018-12-20T08:04:27.923Z,99.90
2018-12-20T08:06:56.062Z,99.90
2018-12-20T08:09:24.205Z,99.60
2018-12-20T08:11:52.939Z,99.50
2018-12-20T08:14:21.171Z,99.30
2018-12-20T08:16:49.334Z,99.10
2018-12-20T08:19:17.485Z,99.50
2018-12-20T08:21:45.642Z,99.30
2018-12-20T08:24:13.871Z,98.90
2018-12-20T08:26:42.009Z,99.50
2018-12-20T08:29:10.152Z,99.00
2018-12-20T08:31:38.279Z,99.20
2018-12-20T08:34:06.511Z,99.60
2018-12-20T08:36:34.719Z,99.20
2018-12-20T08:39:03.531Z,99.50
2018-12-20T08:41:31.658Z,99.40
2018-12-20T08:43:59.795Z,99.70
2018-12-20T08:46:27.928Z,99.90
2018-12-20T08:48:56.075Z,99.90
2018-12-20T08:51:24.268Z,99.60
2018-12-20T08:53:52.487Z,99.50
2018-12-20T08:56:20.697Z,99.70
2018-12-20T08:58:48.856Z,99.90
2018-12-20T09:01:16.994Z,99.90
2018-12-20T09:03:45.213Z,99.90
2018-12-20T09:06:13.438Z,99.90
2018-12-20T09:08:41.667Z,99.90
2018-12-20T09:11:09.874Z,99.90
2018-12-20T09:13:38.009Z,99.90
2018-12-20T09:16:06.155Z,99.90
2018-12-20T09:18:34.301Z,99.90
2018-12-20T09:21:02.517Z,99.90
2018-12-20T09:23:30.660Z,99.90
2018-12-20T09:25:58.798Z,99.90
2018-12-20T09:28:26.930Z,99.90
2018-12-20T09:30:55.082Z,99.90
2018-12-20T09:33:23.204Z,99.90
2018-12-20T09:35:51.414Z,99.90
2018-12-20T09:38:19.544Z,99.90
2018-12-20T09:40:47.750Z,99.90
2018-12-20T09:43:15.889Z,99.90
2018-12-20T09:45:44.014Z,99.90
2018-12-20T09:48:12.129Z,99.90
2018-12-20T09:50:40.343Z,99.90
2018-12-20T09:53:08.544Z,99.90
2018-12-20T09:55:36.762Z,99.90
2018-12-20T09:58:04.985Z,99.90
2018-12-20T10:00:33.214Z,99.90
2018-12-20T10:03:01.353Z,99.90
2018-12-20T10:05:29.536Z,99.90
2018-12-20T10:07:57.771Z,99.90
2018-12-20T10:10:26.010Z,99.90
2018-12-20T10:12:54.295Z,99.90
2018-12-20T10:15:22.442Z,99.90
2018-12-20T10:17:50.583Z,99.90
2018-12-20T10:20:18.822Z,99.90
2018-12-20T10:22:46.962Z,99.90
2018-12-20T10:25:15.183Z,99.90
2018-12-20T10:27:43.309Z,99.90
2018-12-20T10:30:11.625Z,99.90
2018-12-20T10:32:39.755Z,99.90
2018-12-20T10:35:08.055Z,99.90
2018-12-20T10:37:36.208Z,99.90
2018-12-20T10:40:05.141Z,99.90
2018-12-20T10:42:33.294Z,99.90
2018-12-20T10:45:01.434Z,99.90
2018-12-20T10:47:29.651Z,99.90
2018-12-20T10:49:57.984Z,99.90
2018-12-20T10:52:26.348Z,99.90
2018-12-20T10:54:54.587Z,99.90
2018-12-20T10:57:23.320Z,99.90
2018-12-20T10:59:51.630Z,99.90
2018-12-20T11:02:25.378Z,99.90
2018-12-20T11:04:58.736Z,99.90
2018-12-20T11:08:03.585Z,99.90
2018-12-20T11:10:31.807Z,99.90
2018-12-20T11:13:04.200Z,99.90
2018-12-20T11:15:32.343Z,99.90
2018-12-20T11:18:00.499Z,99.90
2018-12-20T11:20:28.629Z,99.90
2018-12-20T11:22:56.828Z,99.90
2018-12-20T11:25:25.044Z,99.90
2018-12-20T11:27:53.173Z,99.90
2018-12-20T11:30:21.378Z,99.90
2018-12-20T11:32:49.522Z,99.90
2018-12-20T11:35:17.637Z,99.90
2018-12-20T11:37:45.865Z,99.90
2018-12-20T11:40:14.085Z,99.90
2018-12-20T11:42:42.247Z,99.90
2018-12-20T11:45:10.466Z,99.90
2018-12-20T11:47:45.694Z,99.90
2018-12-20T11:50:08.825Z,99.90
2018-12-20T11:52:42.300Z,99.90
2018-12-20T11:55:07.286Z,99.90
2018-12-20T11:57:35.426Z,99.90
2018-12-20T12:00:04.838Z,99.90
2018-12-20T12:02:33.026Z,99.90
2018-12-20T12:05:01.149Z,99.90
2018-12-20T12:07:29.942Z,99.90
2018-12-20T12:09:58.082Z,99.90
2018-12-20T12:12:26.225Z,99.90
2018-12-20T12:14:54.422Z,99.90
2018-12-20T12:17:22.569Z,99.90
2018-12-20T12:19:50.786Z,99.90
2018-12-20T12:22:18.986Z,99.90
2018-12-20T12:24:50.534Z,99.90
2018-12-20T12:27:18.700Z,99.90
2018-12-20T12:29:46.868Z,99.90
2018-12-20T12:32:15.004Z,99.90
2018-12-20T12:34:43.138Z,99.90
2018-12-20T12:37:11.339Z,99.90
2018-12-20T12:39:39.481Z,99.90
2018-12-20T12:42:07.798Z,99.90
2018-12-20T12:44:35.945Z,99.90
2018-12-20T12:47:06.579Z,99.90
2018-12-20T12:49:34.737Z,99.90
2018-12-20T12:52:02.980Z,99.90
2018-12-20T12:54:31.127Z,99.90
2018-12-20T12:56:59.773Z,99.90
2018-12-20T12:59:28.075Z,99.90
2018-12-20T13:02:01.927Z,99.90
2018-12-20T13:04:30.086Z,99.90
2018-12-20T13:07:01.723Z,99.90
2018-12-20T13:09:29.878Z,99.90
2018-12-20T13:11:58.026Z,99.90
2018-12-20T13:14:26.174Z,99.90
2018-12-20T13:16:54.391Z,99.90
2018-12-20T13:19:22.527Z,99.90
2018-12-20T13:21:50.653Z,99.90
2018-12-20T13:24:18.812Z,99.90
2018-12-20T13:26:47.030Z,99.90
2018-12-20T13:29:15.317Z,99.90
2018-12-20T13:31:43.483Z,99.90
2018-12-20T13:34:11.717Z,99.90
2018-12-20T13:36:39.947Z,99.90
2018-12-20T13:39:08.215Z,99.90
2018-12-20T13:41:36.349Z,99.90
2018-12-20T13:44:04.662Z,99.90
2018-12-20T13:46:32.863Z,99.90
2018-12-20T13:49:00.990Z,99.90
2018-12-20T13:51:29.121Z,99.90
2018-12-20T13:53:57.276Z,99.90
2018-12-20T13:56:25.490Z,99.90
2018-12-20T13:58:53.742Z,99.90
2018-12-20T14:01:21.899Z,99.90
2018-12-20T14:03:50.043Z,99.90
2018-12-20T14:06:18.202Z,99.90
2018-12-20T14:08:46.426Z,99.90
2018-12-20T14:11:14.649Z,99.90
2018-12-20T14:13:42.840Z,99.90
2018-12-20T14:16:10.996Z,99.90
2018-12-20T14:18:39.144Z,99.90
2018-12-20T14:21:07.402Z,99.90
2018-12-20T14:23:35.637Z,99.90
2018-12-20T14:26:03.961Z,99.90
2018-12-20T14:28:32.119Z,99.90
2018-12-20T14:31:00.371Z,99.90
2018-12-20T14:33:28.518Z,99.90
2018-12-20T14:35:56.659Z,99.90
2018-12-20T14:38:24.877Z,99.90
2018-12-20T14:40:55.101Z,99.90
2018-12-20T14:43:23.361Z,99.90
2018-12-20T14:45:51.577Z,99.90
2018-12-20T14:48:25.287Z,99.80
2018-12-20T14:50:53.467Z,99.90
2018-12-20T14:53:21.614Z,99.80
2018-12-20T14:55:49.926Z,99.50
2018-12-20T14:58:18.071Z,99.40
2018-12-20T15:00:46.368Z,99.10
2018-12-20T15:03:14.642Z,98.80
2018-12-20T15:05:42.874Z,98.70
2018-12-20T15:08:11.026Z,98.60
2018-12-20T15:10:39.183Z,98.20
2018-12-20T15:13:07.321Z,98.70
2018-12-20T15:15:35.478Z,99.50
2018-12-20T15:18:03.681Z,99.10
2018-12-20T15:20:40.287Z,99.20
2018-12-20T15:23:02.047Z,98.80
2018-12-20T15:25:30.274Z,99.00
2018-12-20T15:27:58.406Z,99.20
2018-12-20T15:30:26.553Z,98.80
2018-12-20T15:32:54.772Z,98.80
2018-12-20T15:35:22.953Z,98.70
2018-12-20T15:37:51.187Z,98.30
2018-12-20T15:40:19.330Z,98.40
2018-12-20T15:42:47.482Z,98.00
2018-12-20T15:45:15.722Z,98.90
2018-12-20T15:47:43.982Z,98.20
2018-12-20T15:50:12.309Z,98.50
2018-12-20T15:52:40.635Z,98.10
2018-12-20T15:55:08.868Z,98.40
2018-12-20T15:57:37.028Z,98.10
2018-12-20T16:00:06.921Z,97.80
2018-12-20T16:02:35.151Z,98.20
2018-12-20T16:05:03.446Z,97.80
2018-12-20T16:07:31.628Z,98.20
2018-12-20T16:09:59.962Z,97.40
2018-12-20T16:12:28.328Z,97.20
2018-12-20T16:14:56.460Z,97.40
2018-12-20T16:17:25.642Z,96.80
2018-12-20T16:19:53.781Z,96.70
2018-12-20T16:22:21.961Z,96.40
2018-12-20T16:24:50.093Z,96.00
2018-12-20T16:27:18.343Z,95.40
2018-12-20T16:29:46.583Z,95.50
2018-12-20T16:32:14.755Z,95.20
2018-12-20T16:34:42.893Z,95.00
2018-12-20T16:37:11.044Z,95.20
2018-12-20T16:39:39.274Z,94.80
2018-12-20T16:42:07.437Z,94.30
2018-12-20T16:44:35.636Z,93.90
2018-12-20T16:47:03.917Z,93.70
2018-12-20T16:49:32.071Z,93.30
2018-12-20T16:52:00.297Z,93.40
2018-12-20T16:54:28.520Z,93.00
2018-12-20T16:56:56.854Z,93.10
2018-12-20T16:59:25.095Z,92.60
2018-12-20T17:01:53.246Z,91.50
2018-12-20T17:04:21.433Z,92.00
2018-12-20T17:06:49.731Z,90.40
2018-12-20T17:09:18.028Z,84.10
2018-12-20T17:11:46.237Z,87.20
2018-12-20T17:14:17.847Z,86.60
2018-12-20T17:16:45.993Z,86.00
2018-12-20T17:22:13.604Z,84.90
2018-12-20T17:24:47.447Z,85.40
2018-12-20T17:27:15.626Z,85.70
2018-12-20T17:29:43.765Z,82.90
2018-12-20T17:35:11.225Z,80.10
2018-12-20T17:37:39.619Z,79.80
2018-12-20T17:40:08.026Z,77.60
2018-12-20T17:42:36.187Z,75.00
2018-12-20T17:45:05.703Z,74.40
2018-12-20T17:47:33.965Z,74.90
2018-12-20T17:50:02.190Z,74.10
2018-12-20T17:52:30.318Z,74.10
2018-12-20T17:55:01.946Z,73.40
2018-12-20T17:57:30.164Z,73.30
2018-12-20T17:59:58.378Z,72.30
2018-12-20T18:02:26.685Z,73.50
2018-12-20T18:04:54.850Z,75.00
2018-12-20T18:07:22.998Z,75.10
2018-12-20T18:09:51.234Z,75.20
2018-12-20T18:12:19.686Z,74.80
2018-12-20T18:14:47.826Z,74.10
2018-12-20T18:17:16.068Z,73.00
2018-12-20T18:19:44.229Z,72.30
2018-12-20T18:22:12.362Z,73.20
2018-12-20T18:24:40.525Z,73.30
2018-12-20T18:27:08.769Z,73.90
2018-12-20T18:29:36.991Z,73.30
2018-12-20T18:32:05.211Z,72.30
2018-12-20T18:34:33.379Z,72.10
2018-12-20T18:37:01.523Z,72.40
2018-12-20T18:39:29.686Z,71.40
2018-12-20T18:42:12.061Z,70.60
2018-12-20T18:44:58.926Z,70.10
2018-12-20T18:47:27.157Z,69.80
2018-12-20T18:49:55.337Z,68.80
2018-12-20T18:52:23.470Z,68.60
2018-12-20T18:54:59.567Z,67.30
2018-12-20T18:57:27.718Z,66.90
2018-12-20T18:59:55.869Z,66.90
2018-12-20T19:02:24.016Z,66.70
2018-12-20T19:04:52.278Z,66.50
2018-12-20T19:07:20.418Z,65.60
2018-12-20T19:09:48.564Z,65.30
2018-12-20T19:12:16.702Z,64.70
2018-12-20T19:14:44.884Z,65.00
2018-12-20T19:17:13.019Z,65.40
2018-12-20T19:19:41.167Z,65.10
2018-12-20T19:22:09.307Z,65.90
2018-12-20T19:24:37.598Z,65.70
2018-12-20T19:27:05.800Z,66.10
2018-12-20T19:29:33.931Z,68.10
2018-12-20T19:32:02.162Z,67.30
2018-12-20T19:34:30.285Z,68.20
2018-12-20T19:36:58.444Z,67.80
2018-12-20T19:39:27.855Z,68.10
2018-12-20T19:42:01.355Z,68.20
2018-12-20T19:44:30.278Z,68.30
2018-12-20T19:46:58.491Z,69.00
2018-12-20T19:49:26.621Z,69.00
2018-12-20T19:51:54.833Z,69.30
2018-12-20T19:54:23.072Z,69.80
2018-12-20T19:56:51.290Z,71.30
2018-12-20T19:59:19.613Z,71.90
2018-12-20T20:01:47.751Z,72.00
2018-12-20T20:04:20.381Z,72.30
2018-12-20T20:06:48.537Z,72.50
2018-12-20T20:09:16.751Z,72.50
2018-12-20T20:11:44.995Z,73.20
2018-12-20T20:14:13.141Z,73.20
2018-12-20T20:16:41.370Z,74.10
2018-12-20T20:19:09.512Z,73.40
2018-12-20T20:21:37.653Z,74.40
2018-12-20T20:24:06.295Z,74.30
2018-12-20T20:26:34.526Z,74.60
2018-12-20T20:29:02.661Z,74.70
2018-12-20T20:31:30.810Z,74.80
2018-12-20T20:33:59.015Z,75.20
2018-12-20T20:36:27.162Z,74.70
2018-12-20T20:39:01.983Z,74.90
2018-12-20T20:41:25.502Z,75.60
2018-12-20T20:43:55.668Z,76.00
2018-12-20T20:46:23.911Z,76.00
2018-12-20T20:48:52.105Z,76.30
2018-12-20T20:51:20.264Z,76.90
2018-12-20T20:53:48.484Z,76.10
2018-12-20T20:56:16.685Z,75.80
2018-12-20T20:58:44.909Z,76.00
2018-12-20T21:01:13.067Z,76.10
2018-12-20T21:03:41.235Z,75.80
2018-12-20T21:06:09.514Z,76.90
2018-12-20T21:08:37.727Z,76.40
2018-12-20T21:11:05.930Z,76.80
2018-12-20T21:13:34.062Z,76.40
2018-12-20T21:16:02.233Z,76.80
2018-12-20T21:18:30.369Z,76.70
2018-12-20T21:20:58.609Z,77.00
2018-12-20T21:23:26.942Z,76.70
2018-12-20T21:25:55.073Z,77.20
2018-12-20T21:28:23.287Z,78.00
2018-12-20T21:30:51.422Z,77.80
2018-12-20T21:33:19.555Z,78.00
2018-12-20T21:35:47.691Z,77.60
2018-12-20T21:38:15.897Z,77.90
2018-12-20T21:40:44.097Z,78.40
2018-12-20T21:43:12.247Z,77.60
2018-12-20T21:45:40.442Z,77.60
2018-12-20T21:48:08.659Z,78.40
2018-12-20T21:50:39.107Z,77.90
2018-12-20T21:53:06.945Z,77.20
2018-12-20T21:55:35.079Z,77.60
2018-12-20T21:58:03.314Z,77.50
2018-12-20T22:00:31.434Z,77.00
2018-12-20T22:02:59.642Z,77.20
2018-12-20T22:05:28.859Z,77.50
2018-12-20T22:07:57.019Z,77.20
2018-12-20T22:10:25.161Z,76.90
2018-12-20T22:12:53.405Z,77.20
2018-12-20T22:15:21.540Z,77.60
2018-12-20T22:17:49.689Z,77.40
2018-12-20T22:20:17.813Z,77.00
2018-12-20T22:22:45.958Z,77.20
2018-12-20T22:25:14.098Z,76.90
2018-12-20T22:27:42.309Z,77.00
2018-12-20T22:30:11.450Z,76.80
2018-12-20T22:32:39.657Z,76.80
2018-12-20T22:35:07.869Z,76.40
2018-12-20T22:37:35.987Z,76.30
2018-12-20T22:40:05.447Z,77.00
2018-12-20T22:42:33.659Z,76.90
2018-12-20T22:45:01.963Z,76.80
2018-12-20T22:47:30.092Z,77.70
2018-12-20T22:49:58.241Z,77.10
2018-12-20T22:52:26.353Z,77.00
2018-12-20T22:54:54.485Z,77.40
2018-12-20T22:57:22.608Z,77.70
2018-12-20T22:59:50.814Z,77.40
2018-12-20T23:02:19.007Z,77.50
2018-12-20T23:04:47.151Z,78.20
2018-12-20T23:07:15.289Z,79.00
2018-12-20T23:09:44.203Z,79.70
2018-12-20T23:12:13.133Z,80.00
2018-12-20T23:14:41.271Z,79.40
2018-12-20T23:17:09.396Z,80.40
2018-12-20T23:19:37.605Z,80.30
2018-12-20T23:22:05.893Z,79.60
2018-12-20T23:24:34.040Z,79.90
2018-12-20T23:27:02.271Z,79.60
2018-12-20T23:29:30.506Z,79.60
2018-12-20T23:31:58.652Z,79.70
2018-12-20T23:34:26.790Z,80.00
2018-12-20T23:36:55.000Z,80.10
2018-12-20T23:39:23.142Z,79.30
2018-12-20T23:41:51.284Z,80.50
2018-12-20T23:44:19.435Z,80.50
2018-12-20T23:46:47.567Z,80.40
2018-12-20T23:49:15.787Z,80.30
2018-12-20T23:51:45.364Z,80.20
2018-12-20T23:54:13.941Z,79.80
2018-12-20T23:56:42.069Z,79.50
2018-12-20T23:59:10.330Z,78.90
